Time;durP1;ratioP1;P1;durP2;ratioP2;P2;SDS_P1;SDS_P2;PMS_P1;PMS_P2;Temp;Humidity;BMP_temperature;BMP_pressure;BME280_temperature;BME280_humidity;BME280_pressure;Samples;Min_cycle;Max_cycle;Signal;HPM_P1;HPM_P2
2023/10/03 00:01:36;;;;;;;5.60;4.25;;;;;;;-144.30;49.37;85004.84;5069284;28;20286;-54
2023/10/03 00:04:03;;;;;;;7.10;4.22;;;;;;;-144.30;49.23;84992.91;5069241;28;20210;-54
2023/10/03 00:06:33;;;;;;;4.40;3.60;;;;;;;-144.30;49.28;84988.94;5069672;28;20196;-55
2023/10/03 00:09:01;;;;;;;7.97;3.95;;;;;;;-144.30;49.34;85044.59;5069535;28;20206;-62
2023/10/03 00:11:29;;;;;;;12.70;5.20;;;;;;;-144.30;49.45;84998.88;5069719;28;20287;-63
2023/10/03 00:13:57;;;;;;;7.72;4.28;;;;;;;-144.30;49.28;84998.88;5069779;28;20677;-62
2023/10/03 00:16:24;;;;;;;10.38;4.00;;;;;;;-144.30;49.37;85016.75;5068981;28;20226;-54
2023/10/03 00:18:51;;;;;;;7.63;4.50;;;;;;;-144.30;49.30;85040.59;5069409;28;20206;-53
2023/10/03 00:21:18;;;;;;;11.98;4.07;;;;;;;-144.30;49.33;85014.78;5069166;28;20513;-53
2023/10/03 00:23:45;;;;;;;5.97;4.28;;;;;;;-144.30;49.46;85024.72;5069423;28;20204;-55
2023/10/03 00:26:17;;;;;;;5.97;4.03;;;;;;;-144.30;49.99;85054.53;5069108;28;20196;-56
2023/10/03 00:28:44;;;;;;;7.60;4.35;;;;;;;-144.30;50.19;84990.91;5069427;28;20265;-54
2023/10/03 00:31:13;;;;;;;7.85;3.90;;;;;;;-144.30;50.31;85010.78;5069180;28;20204;-55
2023/10/03 00:33:41;;;;;;;12.57;7.85;;;;;;;-144.30;50.64;85080.38;5069310;28;20200;-55
2023/10/03 00:36:16;;;;;;;7.17;4.60;;;;;;;-144.30;50.99;85032.66;5069213;28;20635;-55
2023/10/03 00:38:45;;;;;;;7.57;4.90;;;;;;;-144.30;51.00;85042.59;5069155;28;20206;-55
2023/10/03 00:41:12;;;;;;;12.10;6.38;;;;;;;-144.30;50.84;85030.66;5069016;28;20270;-54
2023/10/03 00:43:52;;;;;;;9.85;4.82;;;;;;;-144.30;51.25;85042.59;5069196;28;20290;-62
2023/10/03 00:46:21;;;;;;;8.50;4.43;;;;;;;-144.30;51.20;85060.50;5069092;28;20195;-63
2023/10/03 00:48:49;;;;;;;5.90;4.00;;;;;;;-144.30;51.17;85062.47;5069230;28;20690;-62
2023/10/03 00:51:20;;;;;;;7.97;4.65;;;;;;;-144.30;51.18;85066.44;5069284;28;20672;-62
2023/10/03 00:53:51;;;;;;;7.00;4.57;;;;;;;-144.30;51.62;85080.38;5071224;28;20200;-62
2023/10/03 00:56:19;;;;;;;9.85;4.35;;;;;;;-144.30;51.77;85108.19;5072709;28;20273;-62
2023/10/03 00:58:45;;;;;;;4.63;4.20;;;;;;;-144.30;52.20;85096.25;5072818;28;20288;-62
2023/10/03 01:01:12;;;;;;;6.23;4.30;;;;;;;-144.30;52.57;85076.38;5072806;28;20196;-55
2023/10/03 01:03:41;;;;;;;6.63;4.33;;;;;;;-144.30;52.35;85094.28;5072841;28;20210;-55
2023/10/03 01:06:09;;;;;;;7.53;4.30;;;;;;;-144.30;52.61;85110.19;5072663;28;20218;-55
2023/10/03 01:08:39;;;;;;;7.13;4.13;;;;;;;-144.30;52.83;85110.19;5072605;28;20206;-56
2023/10/03 01:11:07;;;;;;;5.93;4.57;;;;;;;-144.30;52.84;85062.47;5072566;28;20261;-54
2023/10/03 01:13:35;;;;;;;6.57;4.43;;;;;;;-144.30;53.14;85110.19;5072690;28;20200;-54
2023/10/03 01:16:05;;;;;;;8.70;4.43;;;;;;;-144.30;53.42;85149.94;5072616;28;20585;-55
2023/10/03 01:18:32;;;;;;;8.30;5.33;;;;;;;-144.30;54.04;85100.25;5072638;28;20232;-55
2023/10/03 01:21:04;;;;;;;5.17;4.33;;;;;;;-144.30;54.47;85114.16;5072182;28;20228;-54
2023/10/03 01:23:33;;;;;;;8.73;4.93;;;;;;;-144.30;54.68;85173.78;5072484;28;20207;-55
2023/10/03 01:26:00;;;;;;;9.03;4.33;;;;;;;-144.30;54.91;85143.97;5072572;28;20200;-63
2023/10/03 01:28:27;;;;;;;6.53;4.57;;;;;;;-144.30;55.08;85165.84;5072549;28;20206;-62
2023/10/03 01:30:54;;;;;;;8.53;4.67;;;;;;;-144.30;55.21;85185.72;5072318;28;20249;-55
2023/10/03 01:33:26;;;;;;;8.63;4.70;;;;;;;-144.30;55.77;85169.81;5072146;28;20196;-62
2023/10/03 01:35:53;;;;;;;8.03;4.73;;;;;;;-144.30;56.06;85231.44;5072079;28;20223;-61
2023/10/03 01:38:20;;;;;;;7.30;4.80;;;;;;;-144.30;56.37;85237.41;5072054;28;20580;-55
2023/10/03 01:40:53;;;;;;;9.53;4.87;;;;;;;-144.30;56.24;85217.53;5072106;28;20196;-62
2023/10/03 01:43:20;;;;;;;9.33;5.17;;;;;;;-144.30;56.15;85185.72;5072072;28;20587;-55
2023/10/03 01:45:47;;;;;;;9.90;5.50;;;;;;;-144.30;56.47;85213.53;5071970;28;20246;-55
2023/10/03 01:48:14;;;;;;;9.67;5.17;;;;;;;-144.30;56.96;85219.50;5071562;28;20246;-55
2023/10/03 01:50:41;;;;;;;9.27;4.93;;;;;;;-144.30;57.28;85237.41;5072161;28;20198;-56
2023/10/03 01:53:07;;;;;;;11.90;5.10;;;;;;;-144.30;57.53;85221.50;5071620;28;20314;-54
2023/10/03 01:55:35;;;;;;;14.37;5.23;;;;;;;-144.30;57.57;85207.59;5071809;28;20231;-55
2023/10/03 01:58:05;;;;;;;12.57;5.60;;;;;;;-144.30;57.72;85253.31;5071694;28;20192;-61
2023/10/03 02:00:34;;;;;;;14.73;6.07;;;;;;;-144.30;58.11;85249.34;5071534;28;20654;-63
2023/10/03 02:03:04;;;;;;;9.30;4.53;;;;;;;-144.30;58.84;85275.16;5071746;28;20224;-61
2023/10/03 02:05:33;;;;;;;8.83;5.73;;;;;;;-144.30;59.08;85265.22;5071132;28;20196;-62
2023/10/03 02:08:07;;;;;;;7.90;4.77;;;;;;;-144.30;59.40;85281.13;5071762;28;20192;-62
2023/10/03 02:10:35;;;;;;;12.63;5.90;;;;;;;-144.30;59.00;85281.13;5071574;28;20911;-62
2023/10/03 02:13:08;;;;;;;10.70;5.70;;;;;;;-144.30;59.10;85285.09;5071237;28;20230;-61
2023/10/03 02:15:36;;;;;;;13.43;6.03;;;;;;;-144.30;59.35;85293.06;5071480;28;20231;-63
2023/10/03 02:18:04;;;;;;;12.60;7.03;;;;;;;-144.30;59.29;85312.94;5071437;28;20196;-63
2023/10/03 02:20:35;;;;;;;10.40;6.80;;;;;;;-144.30;59.68;85303.00;5071137;28;20235;-61
2023/10/03 02:23:05;;;;;;;12.00;6.50;;;;;;;-144.30;59.90;85324.88;5071335;28;20704;-62
2023/10/03 02:25:36;;;;;;;10.50;6.87;;;;;;;-144.30;59.63;85344.75;5071117;28;20198;-63
2023/10/03 02:28:06;;;;;;;10.43;6.03;;;;;;;-144.30;60.09;85324.88;5071290;28;20200;-64
2023/10/03 02:30:34;;;;;;;20.47;6.27;;;;;;;-144.30;60.43;85312.94;5071760;28;20196;-64
2023/10/03 02:33:10;;;;;;;14.53;6.67;;;;;;;-144.30;60.59;85342.75;5071685;28;20752;-64
2023/10/03 02:35:38;;;;;;;11.80;5.93;;;;;;;-144.30;61.31;85340.78;5071215;28;20306;-63
2023/10/03 02:38:09;;;;;;;16.37;6.53;;;;;;;-144.30;61.21;85334.81;5070957;28;20200;-55
2023/10/03 02:40:36;;;;;;;20.10;7.50;;;;;;;-144.30;61.71;85336.78;5071119;28;20236;-63
2023/10/03 02:43:06;;;;;;;18.23;6.83;;;;;;;-144.30;62.06;85368.59;5071151;28;20203;-55
2023/10/03 02:45:34;;;;;;;10.07;6.27;;;;;;;-144.30;62.10;85392.47;5070874;28;20192;-53
2023/10/03 02:48:08;;;;;;;8.07;6.07;;;;;;;-144.30;61.65;85372.56;5070762;28;20618;-57
2023/10/03 02:50:35;;;;;;;9.50;5.97;;;;;;;-144.30;61.83;85364.63;5070754;28;20668;-62
2023/10/03 02:53:07;;;;;;;15.50;6.30;;;;;;;-144.30;60.92;85360.66;5070803;28;20192;-63
2023/10/03 02:55:34;;;;;;;14.70;6.90;;;;;;;-144.30;62.00;85314.94;5070474;28;20223;-62
2023/10/03 02:58:01;;;;;;;9.27;5.87;;;;;;;-144.30;61.58;85358.66;5070813;28;20665;-62
2023/10/03 03:00:29;;;;;;;12.67;5.97;;;;;;;-144.30;61.91;85382.53;5070526;28;20298;-62
2023/10/03 03:02:56;;;;;;;12.27;5.83;;;;;;;-144.30;62.30;85360.66;5070356;28;20200;-55
2023/10/03 03:05:23;;;;;;;15.50;5.77;;;;;;;-144.30;63.38;85388.47;5069198;28;20192;-55
2023/10/03 03:07:58;;;;;;;8.63;5.33;;;;;;;-144.30;63.70;85372.56;5070156;28;20219;-55
2023/10/03 03:10:24;;;;;;;9.73;5.80;;;;;;;-144.30;63.72;85416.31;5070377;28;20901;-55
2023/10/03 03:12:51;;;;;;;8.30;5.57;;;;;;;-144.30;63.70;85400.41;5070326;28;20192;-54
2023/10/03 03:15:22;;;;;;;11.77;4.90;;;;;;;-144.30;63.12;85432.22;5069360;28;20200;-54
2023/10/03 03:17:51;;;;;;;9.73;5.27;;;;;;;-144.30;63.19;85458.06;5062781;28;20215;-55
2023/10/03 03:20:19;;;;;;;8.03;4.60;;;;;;;-144.30;62.82;85426.25;5050221;28;20626;-55
2023/10/03 03:22:47;;;;;;;13.37;5.17;;;;;;;-144.30;62.66;85452.09;5051080;28;20201;-55
2023/10/03 03:25:19;;;;;;;10.27;6.67;;;;;;;-144.30;62.50;85446.13;5081193;28;20733;-54
2023/10/03 03:27:46;;;;;;;11.80;7.27;;;;;;;-144.30;62.52;85428.25;5079951;28;20196;-55
2023/10/03 03:30:33;;;;;;;12.73;7.67;;;;;;;-144.30;62.59;85456.06;5078425;28;20196;-55
2023/10/03 03:33:06;;;;;;;10.73;7.20;;;;;;;-144.30;62.93;85340.78;5076533;28;20207;-54
2023/10/03 03:35:39;;;;;;;12.87;6.70;;;;;;;-144.30;62.92;85456.06;5076613;28;20661;-56
2023/10/03 03:38:11;;;;;;;11.87;6.63;;;;;;;-144.30;62.71;85420.28;5076388;28;20207;-62
2023/10/03 03:40:38;;;;;;;11.63;6.63;;;;;;;-144.30;62.71;85446.13;5079349;28;20742;-61
2023/10/03 03:43:05;;;;;;;16.23;6.47;;;;;;;-144.30;62.92;85452.09;5080736;28;20246;-61
2023/10/03 03:45:32;;;;;;;11.07;6.03;;;;;;;-144.30;63.14;85468.00;5080298;28;20662;-61
2023/10/03 03:48:01;;;;;;;14.00;7.00;;;;;;;-144.30;63.21;85432.22;5080117;28;20206;-60
2023/10/03 03:50:31;;;;;;;11.90;6.27;;;;;;;-144.30;63.81;85491.84;5080726;28;20195;-61
2023/10/03 03:52:59;;;;;;;10.67;6.07;;;;;;;-144.30;63.40;85456.06;5078212;28;20210;-61
2023/10/03 03:55:29;;;;;;;10.17;5.87;;;;;;;-144.30;63.60;85446.13;5069705;28;20206;-62
2023/10/03 03:57:56;;;;;;;8.47;5.67;;;;;;;-144.30;63.43;85501.78;5068994;28;20746;-55
2023/10/03 04:00:26;;;;;;;15.47;5.37;;;;;;;-144.30;63.31;85456.06;5066329;28;20203;-56
2023/10/03 04:02:53;;;;;;;15.90;6.67;;;;;;;-144.30;63.24;85448.13;5081783;28;20230;-55
2023/10/03 04:05:22;;;;;;;24.50;6.43;;;;;;;-144.30;63.33;85438.19;5069265;28;20210;-60
2023/10/03 04:07:49;;;;;;;14.03;6.47;;;;;;;-144.30;63.14;85497.81;5085521;28;20287;-61
2023/10/03 04:10:16;;;;;;;15.53;5.77;;;;;;;-144.30;63.11;85460.03;5081341;28;20206;-61
2023/10/03 04:12:44;;;;;;;12.67;5.80;;;;;;;-144.30;63.43;85436.19;5078380;28;20700;-60
2023/10/03 04:15:12;;;;;;;11.07;6.57;;;;;;;-144.30;63.90;85454.09;5078723;28;20585;-61
2023/10/03 04:17:41;;;;;;;16.30;6.63;;;;;;;-144.30;64.28;85491.84;5086930;28;20230;-54
2023/10/03 04:20:19;;;;;;;14.60;6.73;;;;;;;-144.30;64.73;85479.94;5078369;28;20200;-54
2023/10/03 04:22:50;;;;;;;12.23;7.73;;;;;;;-144.30;64.73;85491.84;5069795;28;20191;-55
2023/10/03 04:25:19;;;;;;;13.77;7.13;;;;;;;-144.30;65.04;85473.97;5069329;28;20196;-54
2023/10/03 04:27:48;;;;;;;14.30;6.50;;;;;;;-144.30;65.06;85485.88;5071852;28;20924;-55
2023/10/03 04:30:15;;;;;;;17.77;7.07;;;;;;;-144.30;64.69;85434.22;5072881;28;20287;-56
2023/10/03 04:32:43;;;;;;;8.27;6.33;;;;;;;-144.30;64.79;85458.06;5073362;28;20196;-54
2023/10/03 04:35:13;;;;;;;14.17;5.80;;;;;;;-144.30;65.06;85444.16;5072010;28;20253;-56
2023/10/03 04:37:42;;;;;;;13.03;6.77;;;;;;;-144.30;65.49;85471.97;5071640;28;20325;-54
2023/10/03 04:40:20;;;;;;;11.23;7.00;;;;;;;-144.30;65.69;85495.84;5070785;28;20202;-61
2023/10/03 04:42:47;;;;;;;15.53;6.87;;;;;;;-144.30;66.44;85513.72;5075749;28;20231;-61
2023/10/03 04:45:14;;;;;;;9.87;7.13;;;;;;;-144.30;66.63;85475.94;5072214;28;20203;-61
2023/10/03 04:47:43;;;;;;;14.37;6.97;;;;;;;-144.30;66.44;85523.66;5072611;28;20249;-61
2023/10/03 04:50:11;;;;;;;12.10;7.57;;;;;;;-144.30;65.99;85420.28;5072914;28;20214;-61
2023/10/03 04:52:39;;;;;;;17.53;7.30;;;;;;;-144.30;65.90;85458.06;5072861;28;20200;-61
2023/10/03 04:55:08;;;;;;;11.40;7.60;;;;;;;-144.30;65.18;85489.88;5072851;28;20201;-61
2023/10/03 04:57:41;;;;;;;20.70;7.57;;;;;;;-144.30;65.02;85460.03;5072611;28;20216;-62
2023/10/03 05:00:10;;;;;;;16.30;7.27;;;;;;;-144.30;64.58;85475.94;5073189;28;20628;-55
2023/10/03 05:02:37;;;;;;;16.53;7.70;;;;;;;-144.30;64.22;85471.97;5093072;28;20286;-61
2023/10/03 05:05:04;;;;;;;13.47;7.93;;;;;;;-144.30;64.22;85432.22;5068600;28;20208;-61
2023/10/03 05:07:31;;;;;;;15.23;8.17;;;;;;;-144.30;64.16;85428.25;5071744;28;20278;-61
2023/10/03 05:09:58;;;;;;;16.43;8.77;;;;;;;-144.30;63.29;85774.16;5071373;28;20207;-61
2023/10/03 05:12:25;;;;;;;18.97;8.00;;;;;;;-144.30;63.09;85440.16;5073283;28;20195;-61
2023/10/03 05:14:53;;;;;;;11.87;7.50;;;;;;;-144.30;62.46;85370.59;5073837;28;20211;-61
2023/10/03 05:17:20;;;;;;;18.70;7.70;;;;;;;-144.30;61.04;85324.88;5073537;28;20234;-63
2023/10/03 05:19:47;;;;;;;12.50;7.17;;;;;;;-144.30;58.27;85245.34;5073655;28;20196;-61
2023/10/03 05:22:14;;;;;;;17.47;8.03;;;;;;;-144.30;55.19;85143.97;5073316;28;20232;-61
2023/10/03 05:24:41;;;;;;;15.73;7.90;;;;;;;-144.30;53.42;85060.50;5073294;28;20196;-61
2023/10/03 05:27:09;;;;;;;11.70;7.40;;;;;;;-144.30;50.72;84917.38;5078767;28;20653;-54
2023/10/03 05:29:37;;;;;;;11.25;7.97;;;;;;;-144.30;48.27;84808.06;5080225;28;20639;-54
2023/10/03 05:32:05;;;;;;;15.20;7.60;;;;;;;-144.30;45.43;84625.19;5073464;28;20294;-54
2023/10/03 05:34:32;;;;;;;18.02;8.02;;;;;;;-144.30;43.14;84531.78;5073099;28;20234;-61
2023/10/03 05:36:59;;;;;;;8.93;7.20;;;;;;;-144.30;41.77;84390.69;5073252;28;20644;-54
2023/10/03 05:39:27;;;;;;;15.10;7.22;;;;;;;-144.30;40.33;84311.19;5072371;28;20200;-54
2023/10/03 05:41:56;;;;;;;11.75;6.57;;;;;;;-144.30;38.59;84176.06;5072782;28;20200;-54
2023/10/03 05:44:23;;;;;;;17.65;6.85;;;;;;;-144.30;37.38;84056.81;5072883;28;20242;-54
2023/10/03 05:46:55;;;;;;;15.57;7.65;;;;;;;-144.30;36.07;83905.81;5073203;28;20191;-54
2023/10/03 05:49:24;;;;;;;11.13;7.30;;;;;;;-144.30;35.87;83933.63;5072974;28;20192;-55
2023/10/03 05:51:55;;;;;;;11.95;6.65;;;;;;;-144.30;35.47;83866.06;5073016;28;20239;-53
2023/10/03 05:54:23;;;;;;;13.98;6.53;;;;;;;-144.30;35.20;83919.72;5073251;28;20200;-54
2023/10/03 05:56:50;;;;;;;9.80;6.93;;;;;;;-144.30;35.54;83977.34;5073188;28;20216;-54
2023/10/03 05:59:17;;;;;;;10.77;6.22;;;;;;;-144.30;35.94;84009.13;5072952;28;20200;-54
2023/10/03 06:01:45;;;;;;;11.45;6.30;;;;;;;-144.30;36.72;84076.69;5072956;28;20235;-63
2023/10/03 06:04:12;;;;;;;15.70;6.35;;;;;;;-144.30;36.58;84076.69;5072163;28;20249;-54
2023/10/03 06:06:40;;;;;;;8.98;5.97;;;;;;;-144.30;36.14;84036.94;5072223;28;20203;-54
2023/10/03 06:09:10;;;;;;;12.07;6.38;;;;;;;-144.30;36.47;84074.72;5072358;28;20194;-55
2023/10/03 06:11:37;;;;;;;13.82;7.43;;;;;;;-144.30;37.45;84191.94;5072190;28;20200;-54
2023/10/03 06:14:04;;;;;;;12.27;8.52;;;;;;;-144.30;38.59;84259.50;5072250;28;20246;-55
2023/10/03 06:16:32;;;;;;;19.13;8.05;;;;;;;-144.30;39.02;84235.66;5071949;28;20211;-55
2023/10/03 06:18:59;;;;;;;16.85;10.45;;;;;;;-144.30;37.36;84044.91;5071940;28;20546;-54
2023/10/03 06:21:26;;;;;;;10.80;8.45;;;;;;;-144.30;35.93;83909.78;5071981;28;20224;-56
2023/10/03 06:23:54;;;;;;;19.15;8.63;;;;;;;-144.30;34.50;83738.88;5072183;28;20196;-56
2023/10/03 06:26:21;;;;;;;14.40;7.97;;;;;;;-144.30;33.59;83609.75;5071994;28;20207;-56
2023/10/03 06:28:49;;;;;;;12.68;7.90;;;;;;;-144.30;32.17;83385.22;5071922;28;20206;-56
2023/10/03 06:31:18;;;;;;;14.55;7.75;;;;;;;-144.30;31.22;83246.16;5071770;28;20295;-56
2023/10/03 06:33:45;;;;;;;18.75;11.32;;;;;;;-144.30;30.55;83144.84;5072112;28;20718;-56
2023/10/03 06:36:12;;;;;;;10.88;8.48;;;;;;;-144.30;29.55;82878.63;5071746;28;20294;-55
2023/10/03 06:38:41;;;;;;;14.35;9.55;;;;;;;-144.30;29.30;82924.31;5071921;28;20593;-56
2023/10/03 06:41:11;;;;;;;13.15;8.35;;;;;;;-144.30;29.51;82956.09;5071884;28;20282;-56
2023/10/03 06:43:38;;;;;;;15.55;9.60;;;;;;;-144.30;29.27;82940.22;5068361;28;20258;-56
2023/10/03 06:46:06;;;;;;;10.45;8.45;;;;;;;-144.30;29.70;83011.72;5071987;28;20291;-56
2023/10/03 06:48:35;;;;;;;21.88;7.78;;;;;;;-144.30;28.39;82791.22;5071768;28;20204;-56
2023/10/03 06:51:05;;;;;;;12.05;8.57;;;;;;;-144.30;28.27;82789.25;5070935;28;20587;-56
2023/10/03 06:53:33;;;;;;;21.98;13.13;;;;;;;-144.30;27.84;82644.22;5071876;28;20207;-56
2023/10/03 06:56:00;;;;;;;19.40;13.18;;;;;;;-144.30;27.41;82445.59;5071655;28;20579;-56
2023/10/03 06:58:28;;;;;;;14.95;11.13;;;;;;;-144.30;26.96;82386.00;5071003;28;20227;-55
2023/10/03 07:00:56;;;;;;;18.10;11.07;;;;;;;-144.30;26.58;82332.38;5071646;28;20583;-55
2023/10/03 07:03:23;;;;;;;19.50;11.10;;;;;;;-144.30;26.46;82356.22;5071443;28;20199;-56
2023/10/03 07:05:50;;;;;;;15.60;10.52;;;;;;;-144.30;26.50;82388.00;5067723;28;20212;-56
2023/10/03 07:08:17;;;;;;;19.55;9.02;;;;;;;-144.30;26.63;82334.38;5077610;28;20200;-56
2023/10/03 07:10:44;;;;;;;33.63;23.55;;;;;;;-144.30;26.48;82368.13;5078472;28;20595;-55
2023/10/03 07:13:12;;;;;;;49.30;35.05;;;;;;;-144.30;26.97;82598.56;5080712;28;20209;-56
2023/10/03 07:15:42;;;;;;;20.45;9.95;;;;;;;-144.30;28.80;83039.53;5083009;28;20283;-55
2023/10/03 07:18:09;;;;;;;22.98;11.93;;;;;;;-144.30;30.16;83279.94;5083380;28;20223;-55
2023/10/03 07:20:36;;;;;;;17.20;8.85;;;;;;;-144.30;31.54;83568.00;5079573;28;20227;-56
2023/10/03 07:23:03;;;;;;;20.45;13.52;;;;;;;-144.30;32.91;83665.38;5073546;28;20202;-55
2023/10/03 07:25:32;;;;;;;18.85;9.10;;;;;;;-144.30;33.98;83838.25;5070461;28;20206;-56
2023/10/03 07:27:59;;;;;;;25.73;16.08;;;;;;;-144.30;34.91;83877.97;5070859;28;20569;-56
2023/10/03 07:30:26;;;;;;;18.05;9.77;;;;;;;-144.30;35.82;84046.88;5070547;28;20195;-56
2023/10/03 07:32:54;;;;;;;13.75;7.15;;;;;;;-144.30;37.04;84116.44;5070793;28;20200;-55
2023/10/03 07:35:22;;;;;;;17.45;10.38;;;;;;;-144.30;37.99;84247.59;5070118;28;20214;-56
2023/10/03 07:37:51;;;;;;;11.27;8.23;;;;;;;-144.30;39.36;84348.94;5070424;28;20265;-54
2023/10/03 07:40:21;;;;;;;14.32;9.05;;;;;;;-144.30;39.64;84327.09;5070333;28;20287;-56
2023/10/03 07:42:49;;;;;;;13.48;7.93;;;;;;;-144.30;39.70;84350.94;5070359;28;20287;-54
2023/10/03 07:45:16;;;;;;;12.40;7.13;;;;;;;-144.30;39.13;84337.03;5070405;28;20196;-56
2023/10/03 07:47:44;;;;;;;14.65;10.73;;;;;;;-144.30;39.43;84344.97;5070603;28;20214;-56
2023/10/03 07:50:13;;;;;;;12.75;8.30;;;;;;;-144.30;39.94;84384.72;5069819;28;20203;-56
2023/10/03 07:52:44;;;;;;;16.33;6.80;;;;;;;-144.30;39.78;84346.97;5084351;28;20199;-55
2023/10/03 07:55:12;;;;;;;13.43;6.50;;;;;;;-144.30;40.19;84380.75;5091005;28;20562;-56
2023/10/03 07:57:41;;;;;;;12.52;6.70;;;;;;;-144.30;39.84;84362.84;5090713;28;20230;-56
2023/10/03 08:00:19;;;;;;;22.45;15.00;;;;;;;-144.30;39.89;84372.78;5090941;28;20204;-55
2023/10/03 08:02:46;;;;;;;13.15;6.78;;;;;;;-144.30;40.46;84416.50;5073864;28;20218;-56
2023/10/03 08:05:14;;;;;;;11.05;6.85;;;;;;;-144.30;40.60;84450.31;5070529;28;20207;-55
2023/10/03 08:07:42;;;;;;;10.68;6.57;;;;;;;-144.30;41.33;84476.13;5070466;28;20645;-55
2023/10/03 08:10:09;;;;;;;11.95;7.30;;;;;;;-144.30;41.20;84470.19;5070092;28;20200;-56
2023/10/03 08:12:38;;;;;;;9.85;7.95;;;;;;;-144.30;40.77;84418.50;5070255;28;20200;-56
2023/10/03 08:15:16;;;;;;;11.75;5.90;;;;;;;-144.30;40.53;84388.69;5070442;28;20302;-56
2023/10/03 08:17:48;;;;;;;20.50;6.13;;;;;;;-144.30;40.41;84378.75;5070406;28;20706;-56
2023/10/03 08:20:18;;;;;;;42.40;8.57;;;;;;;-144.30;40.32;84368.81;5070562;28;20263;-56
2023/10/03 08:22:50;;;;;;;20.17;6.88;;;;;;;-144.30;39.54;84303.25;5070338;28;20286;-55
2023/10/03 08:25:19;;;;;;;26.75;7.22;;;;;;;-144.30;39.59;84346.97;5070176;28;20656;-55
2023/10/03 08:27:46;;;;;;;12.50;5.85;;;;;;;-144.30;40.04;84430.44;5070067;28;20683;-56
2023/10/03 08:30:25;;;;;;;9.15;5.75;;;;;;;-144.30;40.33;84426.47;5069865;28;20676;-56
2023/10/03 08:32:54;;;;;;;9.23;5.40;;;;;;;-144.30;40.08;84400.63;5070114;28;20206;-56
2023/10/03 08:35:34;;;;;;;8.18;5.65;;;;;;;-144.30;39.98;84434.41;5070495;28;20226;-56
2023/10/03 08:38:05;;;;;;;18.65;6.10;;;;;;;-144.30;39.92;84386.72;5070470;28;20235;-55
2023/10/03 08:40:36;;;;;;;9.20;5.60;;;;;;;-144.30;39.84;84378.75;5070169;28;20203;-55
2023/10/03 08:43:08;;;;;;;13.05;5.63;;;;;;;-144.30;39.83;84364.84;5070214;28;20235;-55
2023/10/03 08:45:39;;;;;;;12.68;5.45;;;;;;;-144.30;39.74;84372.78;5070030;28;20295;-55
2023/10/03 08:48:07;;;;;;;10.80;6.07;;;;;;;-144.30;40.08;84404.59;5069571;28;20188;-55
2023/10/03 08:50:39;;;;;;;11.77;5.53;;;;;;;-144.30;39.88;84267.47;5070279;28;20206;-55
2023/10/03 08:53:26;;;;;;;11.32;5.57;;;;;;;-144.30;39.32;84394.66;5070218;28;20195;-54
2023/10/03 08:55:58;;;;;;;9.57;5.05;;;;;;;-144.30;39.61;84525.81;5070551;28;20619;-55
2023/10/03 08:58:26;;;;;;;6.38;5.50;;;;;;;-144.30;39.42;84422.47;5070022;28;20219;-55
2023/10/03 09:00:58;;;;;;;8.40;5.57;;;;;;;-144.30;39.56;84396.66;5070009;28;20210;-56
2023/10/03 09:03:29;;;;;;;9.35;6.35;;;;;;;-144.30;39.90;84436.38;5070035;28;20199;-55
2023/10/03 09:05:59;;;;;;;11.68;5.82;;;;;;;-144.30;39.83;84398.63;5066553;28;20287;-55
2023/10/03 09:08:27;;;;;;;10.50;5.57;;;;;;;-144.30;38.98;84410.56;5078046;28;20595;-55
2023/10/03 09:10:55;;;;;;;13.88;6.25;;;;;;;-144.30;38.81;84414.53;5077392;28;20200;-55
2023/10/03 09:13:27;;;;;;;11.32;5.45;;;;;;;-144.30;38.84;84414.53;5078156;28;20231;-55
2023/10/03 09:16:00;;;;;;;12.60;5.72;;;;;;;-144.30;38.78;84432.41;5061587;28;20283;-55
2023/10/03 09:18:40;;;;;;;6.28;4.95;;;;;;;-144.30;39.08;84430.44;5085745;28;20219;-55
2023/10/03 09:21:14;;;;;;;11.82;4.85;;;;;;;-144.30;38.57;84426.47;5085242;28;20609;-55
2023/10/03 09:23:59;;;;;;;11.57;4.32;;;;;;;-144.30;38.28;84454.28;5073498;28;20199;-56
2023/10/03 09:26:28;;;;;;;8.68;5.63;;;;;;;-144.30;38.53;84430.44;5073347;28;20206;-54
2023/10/03 09:29:01;;;;;;;10.40;4.97;;;;;;;-144.30;38.56;84426.47;5073584;28;20494;-54
2023/10/03 09:31:31;;;;;;;10.18;5.38;;;;;;;-144.30;38.39;84438.38;5072885;28;20212;-55
2023/10/03 09:34:01;;;;;;;7.68;5.13;;;;;;;-144.30;38.30;84430.44;5073480;28;20200;-56
2023/10/03 09:36:29;;;;;;;8.38;5.00;;;;;;;-144.30;37.99;84378.75;5073178;28;20199;-55
2023/10/03 09:38:57;;;;;;;7.43;4.72;;;;;;;-144.30;37.95;84396.66;5073159;28;20646;-55
2023/10/03 09:41:25;;;;;;;8.18;5.15;;;;;;;-144.30;37.47;84356.91;5073007;28;20200;-56
2023/10/03 09:43:54;;;;;;;6.95;4.60;;;;;;;-144.30;37.50;84368.81;5073113;28;20195;-55
2023/10/03 09:46:38;;;;;;;11.30;6.13;;;;;;;-144.30;37.47;84354.91;5073078;28;20643;-55
2023/10/03 09:49:08;;;;;;;6.70;5.43;;;;;;;-144.30;37.88;84339.00;5073233;28;20196;-55
2023/10/03 09:51:46;;;;;;;9.50;6.03;;;;;;;-144.30;37.93;84394.66;5072953;28;20680;-55
2023/10/03 09:54:24;;;;;;;9.55;5.40;;;;;;;-144.30;38.05;84346.97;5073101;28;20192;-56
2023/10/03 09:56:51;;;;;;;7.95;5.80;;;;;;;-144.30;37.62;84311.19;5073074;28;20265;-55
2023/10/03 09:59:20;;;;;;;8.82;6.20;;;;;;;-144.30;37.33;84374.78;5072846;28;20796;-56
2023/10/03 10:01:47;;;;;;;10.05;5.60;;;;;;;-144.30;37.20;84374.78;5072778;28;20191;-54
2023/10/03 10:04:19;;;;;;;11.40;6.32;;;;;;;-144.30;37.30;84372.78;5072721;28;20220;-56
2023/10/03 10:06:51;;;;;;;15.07;6.28;;;;;;;-144.30;37.19;84364.84;5072699;28;20192;-56
2023/10/03 10:09:27;;;;;;;9.60;6.05;;;;;;;-144.30;37.11;84388.69;5072673;28;20199;-56
2023/10/03 10:12:12;;;;;;;8.90;5.72;;;;;;;-144.30;37.01;84339.00;5072655;28;20262;-56
2023/10/03 10:15:21;;;;;;;9.88;6.47;;;;;;;-144.30;37.04;84346.97;5072508;28;20203;-56
2023/10/03 10:17:51;;;;;;;6.70;5.72;;;;;;;-144.30;37.04;84303.25;5072367;28;20192;-56
2023/10/03 10:20:21;;;;;;;9.65;5.53;;;;;;;-144.30;36.78;84327.09;5072366;28;20719;-55
2023/10/03 10:23:16;;;;;;;6.70;5.53;;;;;;;-144.30;37.00;84374.78;5072688;28;20192;-55
2023/10/03 10:25:50;;;;;;;14.43;6.03;;;;;;;-144.30;36.93;84291.31;5072123;28;20227;-55
2023/10/03 10:28:21;;;;;;;16.48;7.30;;;;;;;-144.30;37.05;84281.38;5072260;28;20192;-55
2023/10/03 10:31:30;;;;;;;13.05;6.55;;;;;;;-144.30;36.52;84267.47;5072320;28;20632;-55
2023/10/03 10:34:46;;;;;;;19.10;7.28;;;;;;;-144.30;36.33;84219.78;5072427;28;20597;-55
2023/10/03 10:37:17;;;;;;;11.55;6.40;;;;;;;-144.30;36.77;84259.50;5072133;28;20731;-55
2023/10/03 10:40:10;;;;;;;10.13;6.07;;;;;;;-144.30;36.45;84269.47;5072032;28;20224;-56
2023/10/03 10:43:01;;;;;;;10.15;5.97;;;;;;;-144.30;36.53;84287.34;5072042;28;20688;-56
2023/10/03 10:45:37;;;;;;;12.60;6.45;;;;;;;-144.30;36.72;84287.34;5071945;28;20200;-55
2023/10/03 10:48:05;;;;;;;8.55;6.18;;;;;;;-144.30;36.84;84289.31;5071881;28;20282;-55
2023/10/03 10:51:13;;;;;;;10.60;5.97;;;;;;;-144.30;36.63;84251.56;5072082;28;20207;-56
2023/10/03 10:53:43;;;;;;;11.70;5.95;;;;;;;-144.30;36.55;84283.38;5071918;28;20200;-56
2023/10/03 10:56:13;;;;;;;13.88;6.50;;;;;;;-144.30;36.29;84291.31;5071739;28;20207;-55
2023/10/03 10:58:53;;;;;;;6.82;6.05;;;;;;;-144.30;36.18;84281.38;5071729;28;20607;-56
2023/10/03 11:01:21;;;;;;;10.70;6.13;;;;;;;-144.30;36.14;84291.31;5071474;28;20192;-55
2023/10/03 11:03:49;;;;;;;7.57;5.57;;;;;;;-144.30;36.59;84287.34;5071499;28;20295;-55
2023/10/03 11:06:16;;;;;;;12.77;6.32;;;;;;;-144.30;36.09;84291.31;5071357;28;20211;-55
2023/10/03 11:08:47;;;;;;;9.95;6.13;;;;;;;-144.30;36.27;84299.25;5071219;28;20227;-56
2023/10/03 11:11:16;;;;;;;9.00;6.40;;;;;;;-144.30;36.53;84315.16;5070993;28;20200;-56
2023/10/03 11:13:47;;;;;;;8.10;6.13;;;;;;;-144.30;36.50;84317.16;5071004;28;20206;-56
2023/10/03 11:16:27;;;;;;;13.70;7.28;;;;;;;-144.30;35.97;84297.28;5071062;28;20200;-55
2023/10/03 11:18:56;;;;;;;10.05;6.90;;;;;;;-144.30;35.93;84285.34;5070707;28;20219;-56
2023/10/03 11:21:24;;;;;;;8.65;6.63;;;;;;;-144.30;36.04;84327.09;5070512;28;20254;-56
2023/10/03 11:24:10;;;;;;;15.32;6.75;;;;;;;-144.30;36.21;84277.41;5070965;28;20669;-54
2023/10/03 11:26:50;;;;;;;6.93;5.75;;;;;;;-144.30;36.18;84325.09;5070677;28;20608;-55